Time;durP1;ratioP1;P1;durP2;ratioP2;P2;SDS_P1;SDS_P2;PMS_P1;PMS_P2;Temp;Humidity;BMP_temperature;BMP_pressure;BME280_temperature;BME280_humidity;BME280_pressure;Samples;Min_cycle;Max_cycle;Signal;HPM_P1;HPM_P2
2022/06/29 00:00:31;;;;;;;;;;;23.30;85.10;;;;;;5030935;28;19945;-96
2022/06/29 00:02:57;;;;;;;;;;;23.20;85.20;;;;;;5030392;28;19947;-96
2022/06/29 00:05:23;;;;;;;;;;;23.10;85.10;;;;;;5029853;28;19978;-96
2022/06/29 00:07:49;;;;;;;;;;;23.00;85.20;;;;;;5046982;28;20418;-96
2022/06/29 00:10:15;;;;;;;;;;;22.90;85.70;;;;;;5046450;28;19946;-96
2022/06/29 00:12:42;;;;;;;;;;;22.80;86.70;;;;;;5027817;28;19952;-96
2022/06/29 00:15:09;;;;;;;;;;;22.70;86.90;;;;;;5045793;28;19972;-96
2022/06/29 00:17:34;;;;;;;;;;;22.50;86.30;;;;;;5046636;28;19937;-96
2022/06/29 00:20:01;;;;;;;;;;;22.60;85.40;;;;;;5047983;28;19943;-96
2022/06/29 00:22:27;;;;;;;;;;;22.70;85.20;;;;;;5048138;28;19969;-96
2022/06/29 00:24:53;;;;;;;;;;;22.80;85.20;;;;;;5030577;28;19944;-96
2022/06/29 00:27:20;;;;;;;;;;;22.80;84.10;;;;;;5049230;28;19944;-96
2022/06/29 00:29:45;;;;;;;;;;;22.90;84.20;;;;;;5032896;28;19946;-96
2022/06/29 00:32:11;;;;;;;;;;;22.90;83.90;;;;;;5034729;28;19951;-96
2022/06/29 00:34:37;;;;;;;;;;;23.00;83.10;;;;;;5052870;28;20060;-96
2022/06/29 00:37:03;;;;;;;;;;;23.00;82.60;;;;;;5034917;28;19945;-96
2022/06/29 00:39:30;;;;;;;;;;;23.10;82.70;;;;;;5035324;28;19963;-96
2022/06/29 00:41:58;;;;;;;;;;;23.10;82.90;;;;;;5052144;28;19972;-96
2022/06/29 00:44:24;;;;;;;;;;;23.20;84.50;;;;;;5030217;28;19942;-96
2022/06/29 00:46:50;;;;;;;;;;;23.10;84.40;;;;;;5044274;28;19938;-96
2022/06/29 00:49:16;;;;;;;;;;;23.00;84.60;;;;;;5026051;28;19950;-96
2022/06/29 00:51:44;;;;;;;;;;;23.00;84.60;;;;;;5026101;28;19995;-96
2022/06/29 00:54:13;;;;;;;;;;;23.00;85.00;;;;;;5042854;28;19947;-96
2022/06/29 00:56:40;;;;;;;;;;;23.00;84.80;;;;;;5046664;28;19946;-96
2022/06/29 00:59:08;;;;;;;;;;;22.90;85.50;;;;;;5050498;28;19974;-96
2022/06/29 01:01:35;;;;;;;;;;;22.90;86.30;;;;;;5034567;28;19948;-96
2022/06/29 01:04:01;;;;;;;;;;;22.90;86.20;;;;;;5034037;28;20007;-96
2022/06/29 01:06:27;;;;;;;;;;;22.90;86.30;;;;;;5052779;28;19965;-96
2022/06/29 01:08:55;;;;;;;;;;;22.90;86.70;;;;;;5035369;28;19949;-96
2022/06/29 01:11:21;;;;;;;;;;;22.90;86.30;;;;;;5035154;28;20027;-96
2022/06/29 01:13:47;;;;;;;;;;;22.80;85.90;;;;;;5052097;28;19969;-96
2022/06/29 01:16:13;;;;;;;;;;;22.80;86.10;;;;;;5051793;28;20022;-95
2022/06/29 01:18:39;;;;;;;;;;;22.80;85.40;;;;;;5050375;28;19942;-96
2022/06/29 01:21:05;;;;;;;;;;;22.80;83.40;;;;;;5033154;28;19949;-96
2022/06/29 01:23:32;;;;;;;;;;;22.80;82.70;;;;;;5032316;28;19951;-96
2022/06/29 01:26:02;;;;;;;;;;;22.80;83.30;;;;;;5048220;28;20308;-96
2022/06/29 01:28:28;;;;;;;;;;;22.70;83.50;;;;;;5046311;28;19944;-96
2022/06/29 01:30:57;;;;;;;;;;;22.60;83.40;;;;;;5031779;28;19949;-96
2022/06/29 01:33:26;;;;;;;;;;;22.50;83.50;;;;;;5037223;28;19944;-96
2022/06/29 01:35:52;;;;;;;;;;;22.40;82.40;;;;;;5047975;28;19958;-96
2022/06/29 01:38:18;;;;;;;;;;;22.40;82.10;;;;;;5050383;28;19950;-96
2022/06/29 01:40:47;;;;;;;;;;;22.30;81.60;;;;;;5033918;28;19953;-96
2022/06/29 01:43:13;;;;;;;;;;;22.30;82.10;;;;;;5034540;28;20044;-96
2022/06/29 01:45:38;;;;;;;;;;;22.30;82.20;;;;;;5034496;28;19945;-96
2022/06/29 01:48:04;;;;;;;;;;;22.20;82.20;;;;;;5034687;28;19944;-95
2022/06/29 01:50:30;;;;;;;;;;;22.10;82.00;;;;;;5052044;28;19936;-96
2022/06/29 01:52:56;;;;;;;;;;;22.20;82.00;;;;;;5034912;28;19944;-96
2022/06/29 01:55:22;;;;;;;;;;;22.20;82.20;;;;;;5053277;28;19987;-96
2022/06/29 01:57:48;;;;;;;;;;;22.20;81.90;;;;;;5050670;28;19973;-96
2022/06/29 02:00:14;;;;;;;;;;;22.30;80.20;;;;;;5043031;28;20037;-96
2022/06/29 02:02:39;;;;;;;;;;;22.30;79.50;;;;;;5024135;28;19966;-96
2022/06/29 02:05:06;;;;;;;;;;;22.50;79.30;;;;;;5041737;28;20458;-95
2022/06/29 02:07:31;;;;;;;;;;;22.40;80.30;;;;;;5024512;28;19971;-95
2022/06/29 02:09:57;;;;;;;;;;;22.40;80.50;;;;;;5042224;28;19940;-96
2022/06/29 02:12:23;;;;;;;;;;;22.30;81.30;;;;;;5032395;28;19994;-96
2022/06/29 02:14:49;;;;;;;;;;;22.30;80.60;;;;;;5035681;28;19966;-96
2022/06/29 02:17:15;;;;;;;;;;;22.30;80.60;;;;;;5054410;28;19985;-96
2022/06/29 02:19:41;;;;;;;;;;;22.30;80.10;;;;;;5036444;28;19948;-96
2022/06/29 02:22:10;;;;;;;;;;;22.30;80.70;;;;;;5054374;28;19939;-96
2022/06/29 02:24:36;;;;;;;;;;;22.30;79.20;;;;;;5036288;28;19950;-96
2022/06/29 02:27:01;;;;;;;;;;;22.30;80.60;;;;;;5035830;28;19965;-96
2022/06/29 02:29:27;;;;;;;;;;;22.20;80.60;;;;;;5051770;28;20288;-96
2022/06/29 02:34:43;;;;;;;;;;;22.20;82.30;;;;;;5052401;28;19984;-96
2022/06/29 02:37:14;;;;;;;;;;;22.30;82.40;;;;;;5035385;28;19943;-96
2022/06/29 02:39:46;;;;;;;;;;;22.30;82.00;;;;;;5035587;28;19950;-96
2022/06/29 02:42:13;;;;;;;;;;;22.30;81.80;;;;;;5052815;28;20405;-96
2022/06/29 02:44:39;;;;;;;;;;;22.20;82.10;;;;;;5035649;28;19930;-96
2022/06/29 02:47:06;;;;;;;;;;;22.20;83.40;;;;;;5035470;28;19946;-96
2022/06/29 02:49:32;;;;;;;;;;;22.00;84.20;;;;;;5052603;28;19966;-96
2022/06/29 02:51:58;;;;;;;;;;;21.90;84.50;;;;;;5036938;28;19951;-96
2022/06/29 02:54:24;;;;;;;;;;;21.80;85.30;;;;;;5050693;28;19967;-96
2022/06/29 02:56:50;;;;;;;;;;;21.70;85.80;;;;;;5032209;28;19989;-96
2022/06/29 02:59:16;;;;;;;;;;;21.60;86.90;;;;;;5031712;28;19985;-96
2022/06/29 03:01:41;;;;;;;;;;;21.40;86.90;;;;;;5031123;28;20317;-96
2022/06/29 03:04:07;;;;;;;;;;;21.30;85.90;;;;;;5031593;28;19940;-96
2022/06/29 03:06:33;;;;;;;;;;;21.30;85.40;;;;;;5031081;28;19949;-96
2022/06/29 03:08:59;;;;;;;;;;;21.30;84.70;;;;;;5046692;28;19939;-96
2022/06/29 03:11:24;;;;;;;;;;;21.40;84.00;;;;;;5047351;28;19940;-96
2022/06/29 03:13:50;;;;;;;;;;;21.50;84.20;;;;;;5047474;28;19945;-96
2022/06/29 03:16:16;;;;;;;;;;;21.60;83.80;;;;;;5031812;28;20048;-96
2022/06/29 03:18:42;;;;;;;;;;;21.50;83.10;;;;;;5033318;28;19975;-96
2022/06/29 03:21:08;;;;;;;;;;;21.60;81.80;;;;;;5028496;28;19948;-95
2022/06/29 03:23:34;;;;;;;;;;;21.70;82.10;;;;;;5044126;28;20032;-96
2022/06/29 03:25:59;;;;;;;;;;;21.80;81.40;;;;;;5042970;28;20050;-95
2022/06/29 03:28:25;;;;;;;;;;;21.90;81.10;;;;;;5043513;28;19945;-96
2022/06/29 03:30:51;;;;;;;;;;;22.00;81.10;;;;;;5042693;28;20474;-94
2022/06/29 03:33:16;;;;;;;;;;;22.00;81.30;;;;;;5046347;28;19947;-96
2022/06/29 03:35:42;;;;;;;;;;;22.00;81.20;;;;;;5044636;28;20060;-95
2022/06/29 03:38:08;;;;;;;;;;;22.00;81.50;;;;;;5044399;28;19943;-96
2022/06/29 03:40:33;;;;;;;;;;;22.00;82.00;;;;;;5026156;28;19950;-95
2022/06/29 03:42:59;;;;;;;;;;;22.10;82.10;;;;;;5044240;28;19941;-96
2022/06/29 03:45:25;;;;;;;;;;;22.00;82.30;;;;;;5044741;28;19980;-94
2022/06/29 03:47:50;;;;;;;;;;;22.00;82.50;;;;;;5043112;28;19943;-95
2022/06/29 03:50:16;;;;;;;;;;;22.10;82.60;;;;;;5028111;28;19946;-96
2022/06/29 03:52:42;;;;;;;;;;;22.10;82.50;;;;;;5025942;28;20020;-95
2022/06/29 03:55:08;;;;;;;;;;;22.20;82.60;;;;;;5024863;28;20020;-95
2022/06/29 03:57:33;;;;;;;;;;;22.20;82.30;;;;;;5045091;28;19946;-96
2022/06/29 04:00:00;;;;;;;;;;;22.30;82.10;;;;;;5043522;28;20036;-96
2022/06/29 04:02:25;;;;;;;;;;;22.40;81.80;;;;;;5043644;28;20015;-96
2022/06/29 04:04:51;;;;;;;;;;;22.40;82.00;;;;;;5044844;28;20342;-96
2022/06/29 04:07:17;;;;;;;;;;;22.40;81.90;;;;;;5029214;28;19969;-96
2022/06/29 04:09:43;;;;;;;;;;;22.40;81.50;;;;;;5045660;28;20393;-96
2022/06/29 04:12:08;;;;;;;;;;;22.50;81.20;;;;;;5026435;28;19961;-95
2022/06/29 04:14:34;;;;;;;;;;;22.60;80.80;;;;;;5029108;28;20402;-95
2022/06/29 04:17:00;;;;;;;;;;;22.70;80.30;;;;;;5028220;28;19951;-95
2022/06/29 04:19:25;;;;;;;;;;;22.80;79.60;;;;;;5046394;28;19939;-96
2022/06/29 04:21:52;;;;;;;;;;;22.90;77.70;;;;;;5047240;28;19943;-96
2022/06/29 04:24:17;;;;;;;;;;;23.00;76.80;;;;;;5047986;28;19938;-96
2022/06/29 04:26:44;;;;;;;;;;;23.00;76.70;;;;;;5048513;28;19959;-96
2022/06/29 04:29:10;;;;;;;;;;;23.00;76.70;;;;;;5048008;28;20005;-96
2022/06/29 04:31:35;;;;;;;;;;;23.00;75.90;;;;;;5047675;28;19946;-96
2022/06/29 04:34:01;;;;;;;;;;;23.10;75.20;;;;;;5048733;28;20013;-96
2022/06/29 04:36:27;;;;;;;;;;;23.10;75.30;;;;;;5050517;28;19961;-96
2022/06/29 04:38:53;;;;;;;;;;;23.10;76.00;;;;;;5032184;28;19991;-96
2022/06/29 04:41:19;;;;;;;;;;;23.00;76.20;;;;;;5033175;28;19941;-95
2022/06/29 04:43:46;;;;;;;;;;;23.00;76.90;;;;;;5050556;28;19960;-95
2022/06/29 04:46:21;;;;;;;;;;;22.90;77.20;;;;;;5049332;28;19960;-95
2022/06/29 04:48:47;;;;;;;;;;;22.80;77.40;;;;;;5031932;28;19943;-96
2022/06/29 04:51:13;;;;;;;;;;;22.80;77.20;;;;;;5049529;28;19945;-96
2022/06/29 04:53:39;;;;;;;;;;;22.90;76.90;;;;;;5032061;28;19944;-96
2022/06/29 04:56:08;;;;;;;;;;;22.90;76.80;;;;;;5032865;28;20059;-96
2022/06/29 04:58:33;;;;;;;;;;;22.90;76.90;;;;;;5033179;28;19991;-96
2022/06/29 05:00:59;;;;;;;;;;;22.90;77.10;;;;;;5045517;28;19989;-95
2022/06/29 05:03:25;;;;;;;;;;;23.00;77.10;;;;;;5046039;28;19948;-96
2022/06/29 05:05:51;;;;;;;;;;;23.00;77.20;;;;;;5027407;28;19952;-96
2022/06/29 05:08:16;;;;;;;;;;;22.90;77.10;;;;;;5031093;28;19994;-96
2022/06/29 05:10:42;;;;;;;;;;;22.90;77.40;;;;;;5048406;28;19951;-95
2022/06/29 05:13:10;;;;;;;;;;;23.00;77.70;;;;;;5046394;28;20316;-96
2022/06/29 05:15:37;;;;;;;;;;;22.90;77.90;;;;;;5048561;28;19959;-96
2022/06/29 05:18:02;;;;;;;;;;;22.90;78.00;;;;;;5029579;28;20032;-96
2022/06/29 05:20:28;;;;;;;;;;;22.80;78.20;;;;;;5048950;28;19936;-96
2022/06/29 05:22:54;;;;;;;;;;;22.80;78.60;;;;;;5048787;28;20029;-96
2022/06/29 05:25:20;;;;;;;;;;;22.80;78.50;;;;;;5030698;28;20048;-96
2022/06/29 05:27:46;;;;;;;;;;;22.80;78.60;;;;;;5047847;28;19938;-96
2022/06/29 05:30:12;;;;;;;;;;;22.80;78.70;;;;;;5029756;28;19948;-96
2022/06/29 05:32:38;;;;;;;;;;;22.80;78.30;;;;;;5027706;28;19946;-96
2022/06/29 05:35:05;;;;;;;;;;;22.80;77.70;;;;;;5028891;28;19966;-96
2022/06/29 05:37:31;;;;;;;;;;;22.80;77.50;;;;;;5046511;28;19984;-96
2022/06/29 05:39:57;;;;;;;;;;;22.90;77.10;;;;;;5029110;28;19941;-95
2022/06/29 05:42:22;;;;;;;;;;;22.90;76.50;;;;;;5024229;28;19946;-96
2022/06/29 05:44:48;;;;;;;;;;;22.90;76.50;;;;;;5042156;28;19978;-95
2022/06/29 05:47:14;;;;;;;;;;;23.00;76.30;;;;;;5045183;28;19938;-96
2022/06/29 05:49:40;;;;;;;;;;;23.10;76.70;;;;;;5028652;28;19940;-96
2022/06/29 05:52:06;;;;;;;;;;;23.20;76.70;;;;;;5025484;28;19943;-96
2022/06/29 05:54:32;;;;;;;;;;;23.20;75.50;;;;;;5026855;28;20041;-96
2022/06/29 05:56:59;;;;;;;;;;;23.20;75.60;;;;;;5027921;28;20425;-96
2022/06/29 05:59:25;;;;;;;;;;;23.20;74.80;;;;;;5045313;28;20006;-96
2022/06/29 06:01:50;;;;;;;;;;;23.30;75.00;;;;;;5031441;28;19948;-96
2022/06/29 06:04:16;;;;;;;;;;;23.30;74.70;;;;;;5027312;28;19963;-95
2022/06/29 06:06:42;;;;;;;;;;;23.30;74.40;;;;;;5022480;28;19950;-96
2022/06/29 06:09:07;;;;;;;;;;;23.30;74.90;;;;;;5040930;28;20321;-96
2022/06/29 06:11:34;;;;;;;;;;;23.40;75.20;;;;;;5047005;28;19982;-95
2022/06/29 06:14:00;;;;;;;;;;;23.50;75.10;;;;;;5046070;28;20426;-96
2022/06/29 06:16:26;;;;;;;;;;;23.60;74.80;;;;;;5046286;28;19963;-96
2022/06/29 06:18:51;;;;;;;;;;;23.60;74.20;;;;;;5048222;28;20021;-96
2022/06/29 06:21:17;;;;;;;;;;;23.70;74.20;;;;;;5029983;28;19945;-96
2022/06/29 06:23:43;;;;;;;;;;;23.70;74.80;;;;;;5027840;28;19947;-96
2022/06/29 06:26:09;;;;;;;;;;;23.70;74.80;;;;;;5028991;28;19990;-96
2022/06/29 06:28:34;;;;;;;;;;;23.80;74.50;;;;;;5044809;28;19950;-96
2022/06/29 06:31:00;;;;;;;;;;;23.80;74.80;;;;;;5047458;28;19944;-96
2022/06/29 06:33:26;;;;;;;;;;;23.90;74.70;;;;;;5045847;28;19959;-96
2022/06/29 06:35:52;;;;;;;;;;;23.90;74.60;;;;;;5028128;28;19976;-96
2022/06/29 06:38:18;;;;;;;;;;;23.90;74.60;;;;;;5030750;28;19949;-96
2022/06/29 06:43:27;;;;;;;;;;;24.00;75.40;;;;;;5038593;28;19950;-95
2022/06/29 06:45:53;;;;;;;;;;;24.00;75.30;;;;;;5034214;28;20334;-95
2022/06/29 06:48:19;;;;;;;;;;;24.10;74.50;;;;;;5034021;28;19939;-94
2022/06/29 06:50:44;;;;;;;;;;;24.10;74.80;;;;;;5033906;28;20023;-95
2022/06/29 06:53:10;;;;;;;;;;;24.20;75.20;;;;;;5033916;28;20013;-94
2022/06/29 06:55:35;;;;;;;;;;;24.30;75.20;;;;;;5016241;28;19973;-95
2022/06/29 06:58:04;;;;;;;;;;;24.40;75.00;;;;;;5035367;23;20452;-94
2022/06/29 07:00:30;;;;;;;;;;;24.50;73.90;;;;;;5013827;28;19990;-94
2022/06/29 07:02:55;;;;;;;;;;;24.60;73.70;;;;;;5013396;28;19937;-93
2022/06/29 07:05:21;;;;;;;;;;;24.60;74.40;;;;;;5014709;28;19939;-95
2022/06/29 07:07:47;;;;;;;;;;;24.60;73.50;;;;;;4996643;28;20041;-95
2022/06/29 07:10:12;;;;;;;;;;;24.70;73.70;;;;;;5014393;28;20034;-94
2022/06/29 07:12:38;;;;;;;;;;;24.80;73.50;;;;;;5014389;28;19948;-94
2022/06/29 07:15:04;;;;;;;;;;;24.90;72.20;;;;;;5013620;28;19956;-94
2022/06/29 07:17:29;;;;;;;;;;;25.00;72.00;;;;;;5014157;28;20296;-95
2022/06/29 07:19:55;;;;;;;;;;;25.10;72.90;;;;;;5014179;28;19945;-94
2022/06/29 07:22:21;;;;;;;;;;;25.10;71.80;;;;;;5014406;28;19943;-95
2022/06/29 07:24:46;;;;;;;;;;;25.20;70.70;;;;;;5014116;28;19943;-96
2022/06/29 07:27:12;;;;;;;;;;;25.20;71.30;;;;;;5032995;28;20328;-96
2022/06/29 07:29:38;;;;;;;;;;;25.30;71.20;;;;;;5033947;28;19952;-96
2022/06/29 07:32:04;;;;;;;;;;;25.30;70.00;;;;;;5034207;28;19943;-94
2022/06/29 07:34:30;;;;;;;;;;;25.20;70.10;;;;;;5033814;28;19965;-93
2022/06/29 07:36:55;;;;;;;;;;;25.00;70.60;;;;;;5015564;28;19971;-93
2022/06/29 07:39:21;;;;;;;;;;;24.90;70.70;;;;;;5034204;28;20317;-96
2022/06/29 07:41:46;;;;;;;;;;;25.00;71.30;;;;;;5037807;28;20427;-96
2022/06/29 07:44:12;;;;;;;;;;;25.10;71.00;;;;;;5037735;28;19945;-96
2022/06/29 07:46:37;;;;;;;;;;;25.20;71.70;;;;;;5019855;28;19950;-94
2022/06/29 07:49:03;;;;;;;;;;;25.00;71.20;;;;;;5037643;28;20316;-95
2022/06/29 07:51:29;;;;;;;;;;;25.00;71.90;;;;;;5037327;28;20363;-95
2022/06/29 07:53:54;;;;;;;;;;;24.90;70.80;;;;;;5037078;28;19965;-95
2022/06/29 07:56:20;;;;;;;;;;;25.00;70.00;;;;;;5037472;28;20012;-95
2022/06/29 07:58:46;;;;;;;;;;;25.00;69.70;;;;;;5037253;28;20362;-96
2022/06/29 08:01:11;;;;;;;;;;;25.00;70.60;;;;;;5037335;28;19940;-95
2022/06/29 08:03:37;;;;;;;;;;;25.20;70.20;;;;;;5037489;28;19944;-95
2022/06/29 08:06:05;;;;;;;;;;;25.20;70.30;;;;;;5037699;28;19945;-95
2022/06/29 08:08:31;;;;;;;;;;;25.20;70.20;;;;;;5020481;28;19992;-96
2022/06/29 08:10:56;;;;;;;;;;;25.30;70.40;;;;;;5019820;28;19948;-96
2022/06/29 08:13:22;;;;;;;;;;;25.40;70.80;;;;;;5037526;28;19996;-96
2022/06/29 08:15:48;;;;;;;;;;;25.50;69.30;;;;;;5021147;28;20421;-95
2022/06/29 08:18:14;;;;;;;;;;;25.50;70.20;;;;;;5038255;28;20032;-96
2022/06/29 08:20:40;;;;;;;;;;;25.50;70.00;;;;;;5019840;28;19946;-96
2022/06/29 08:23:06;;;;;;;;;;;25.60;69.60;;;;;;5037443;28;19937;-95
2022/06/29 08:25:32;;;;;;;;;;;25.50;69.60;;;;;;5036876;28;19966;-95
2022/06/29 08:27:58;;;;;;;;;;;25.30;69.30;;;;;;5036967;28;20410;-95
2022/06/29 08:30:23;;;;;;;;;;;25.20;69.80;;;;;;5019027;28;19995;-95
2022/06/29 08:32:50;;;;;;;;;;;25.30;68.40;;;;;;5037042;28;19942;-95
2022/06/29 08:35:16;;;;;;;;;;;25.40;68.80;;;;;;5036714;28;19958;-96
2022/06/29 08:37:43;;;;;;;;;;;25.50;69.20;;;;;;5036683;28;20385;-96
2022/06/29 08:40:09;;;;;;;;;;;25.60;69.10;;;;;;5036647;28;19942;-95
2022/06/29 08:42:36;;;;;;;;;;;25.80;68.70;;;;;;5018881;28;19943;-96
2022/06/29 08:45:01;;;;;;;;;;;26.00;67.50;;;;;;5036546;28;19985;-96
2022/06/29 08:47:27;;;;;;;;;;;26.20;65.80;;;;;;5036190;28;19937;-96
2022/06/29 08:49:53;;;;;;;;;;;26.30;67.90;;;;;;5036252;28;19935;-94
2022/06/29 08:52:18;;;;;;;;;;;26.50;66.50;;;;;;5035715;28;19952;-95
2022/06/29 08:54:46;;;;;;;;;;;26.60;65.10;;;;;;5036412;28;20345;-96
2022/06/29 08:57:12;;;;;;;;;;;26.80;65.20;;;;;;5018372;28;20434;-96
2022/06/29 08:59:38;;;;;;;;;;;26.90;64.60;;;;;;5036363;28;19975;-96
2022/06/29 09:02:04;;;;;;;;;;;26.90;63.80;;;;;;5036420;28;19986;-96
2022/06/29 09:04:30;;;;;;;;;;;27.00;62.90;;;;;;5036380;28;20020;-94
2022/06/29 09:06:56;;;;;;;;;;;27.00;62.50;;;;;;5036233;28;19939;-95
2022/06/29 09:09:22;;;;;;;;;;;27.00;63.50;;;;;;5036055;28;19951;-94
2022/06/29 09:11:51;;;;;;;;;;;27.20;62.60;;;;;;5018072;28;19948;-94
2022/06/29 09:14:18;;;;;;;;;;;27.30;61.70;;;;;;5036024;28;19949;-95
2022/06/29 09:16:55;;;;;;;;;;;27.30;62.90;;;;;;5035686;28;19950;-94
2022/06/29 09:19:21;;;;;;;;;;;27.20;62.90;;;;;;5001844;28;20469;-95
2022/06/29 09:21:51;;;;;;;;;;;27.20;62.90;;;;;;5035992;28;19943;-94
2022/06/29 09:24:28;;;;;;;;;;;27.30;62.90;;;;;;5035925;28;19949;-96
2022/06/29 09:27:00;;;;;;;;;;;27.40;62.00;;;;;;5035894;28;19998;-95
2022/06/29 09:29:27;;;;;;;;;;;27.70;60.80;;;;;;5035720;28;20465;-96
2022/06/29 09:31:59;;;;;;;;;;;28.00;61.00;;;;;;5017755;28;19943;-94
2022/06/29 09:34:24;;;;;;;;;;;28.00;60.90;;;;;;5035764;28;20474;-96
2022/06/29 09:36:53;;;;;;;;;;;28.20;61.40;;;;;;5035607;28;20057;-95
2022/06/29 09:39:32;;;;;;;;;;;28.20;60.70;;;;;;5035592;28;20458;-95
2022/06/29 09:41:58;;;;;;;;;;;28.20;62.60;;;;;;5035542;28;19994;-95
2022/06/29 09:44:24;;;;;;;;;;;28.30;60.60;;;;;;5034993;28;19949;-94
2022/06/29 09:46:52;;;;;;;;;;;28.40;59.90;;;;;;5035240;28;20361;-95
2022/06/29 09:49:18;;;;;;;;;;;28.60;61.00;;;;;;5035369;28;19987;-96
2022/06/29 09:51:44;;;;;;;;;;;28.70;59.80;;;;;;5035605;28;19940;-94
2022/06/29 09:54:11;;;;;;;;;;;28.80;60.30;;;;;;5035320;28;19955;-96
2022/06/29 09:56:41;;;;;;;;;;;28.90;61.20;;;;;;5034831;28;20056;-96
2022/06/29 09:59:08;;;;;;;;;;;29.00;60.40;;;;;;5035135;28;20462;-96
2022/06/29 10:04:19;;;;;;;;;;;29.40;58.00;;;;;;5034913;28;20034;-95
2022/06/29 10:06:45;;;;;;;;;;;29.40;58.40;;;;;;5034858;28;20381;-95
2022/06/29 10:09:11;;;;;;;;;;;29.60;57.80;;;;;;5034828;28;19945;-96
2022/06/29 10:14:47;;;;;;;;;;;29.60;57.90;;;;;;5034647;28;19948;-95
2022/06/29 10:17:33;;;;;;;;;;;29.40;59.20;;;;;;5034072;28;19947;-94
2022/06/29 10:20:04;;;;;;;;;;;29.40;61.10;;;;;;5033896;28;19942;-94
2022/06/29 10:22:30;;;;;;;;;;;29.40;60.80;;;;;;5034804;28;19949;-93
2022/06/29 10:25:03;;;;;;;;;;;29.20;60.40;;;;;;5035031;28;19943;-94
2022/06/29 10:27:28;;;;;;;;;;;28.70;61.90;;;;;;5016874;28;19948;-94
2022/06/29 10:30:26;;;;;;;;;;;28.30;61.90;;;;;;5034952;28;19994;-95
2022/06/29 10:32:52;;;;;;;;;;;28.10;63.70;;;;;;4980410;28;19947;-95
2022/06/29 10:35:18;;;;;;;;;;;28.10;62.90;;;;;;5034792;28;19963;-93
2022/06/29 10:37:48;;;;;;;;;;;28.20;63.20;;;;;;5034888;28;19942;-93
2022/06/29 10:40:17;;;;;;;;;;;28.20;62.80;;;;;;5034445;28;20012;-95
2022/06/29 10:45:35;;;;;;;;;;;28.60;61.80;;;;;;5034719;28;20017;-96
2022/06/29 10:48:06;;;;;;;;;;;28.90;61.80;;;;;;5034607;28;20014;-95
2022/06/29 10:50:32;;;;;;;;;;;29.30;60.90;;;;;;5016659;28;19944;-95
2022/06/29 10:53:02;;;;;;;;;;;29.50;59.60;;;;;;5035116;28;20119;-95
2022/06/29 10:55:29;;;;;;;;;;;29.60;61.60;;;;;;5034016;28;19945;-94
2022/06/29 10:57:54;;;;;;;;;;;29.70;60.80;;;;;;5034282;28;20057;-94
2022/06/29 11:00:24;;;;;;;;;;;29.70;60.20;;;;;;5034021;28;19993;-95
2022/06/29 11:02:49;;;;;;;;;;;29.80;60.20;;;;;;5034397;28;19970;-93
2022/06/29 11:05:15;;;;;;;;;;;29.80;60.80;;;;;;5034005;28;19939;-95
2022/06/29 11:13:11;;;;;;;;;;;29.70;59.10;;;;;;5033955;28;19951;-94
2022/06/29 11:15:40;;;;;;;;;;;29.90;59.50;;;;;;5033305;28;20474;-94
2022/06/29 11:18:05;;;;;;;;;;;29.90;61.70;;;;;;5034172;28;19946;-95
2022/06/29 11:20:31;;;;;;;;;;;29.80;60.40;;;;;;5033522;28;19939;-95
2022/06/29 11:22:57;;;;;;;;;;;29.70;62.00;;;;;;5033989;28;19948;-93
2022/06/29 11:25:22;;;;;;;;;;;29.50;62.30;;;;;;5033987;28;19967;-95
2022/06/29 11:27:48;;;;;;;;;;;29.10;63.20;;;;;;5034145;28;19940;-94
2022/06/29 11:30:18;;;;;;;;;;;28.90;63.70;;;;;;5033585;28;19940;-95
2022/06/29 11:32:45;;;;;;;;;;;28.70;64.40;;;;;;5033548;28;19949;-95
2022/06/29 11:35:11;;;;;;;;;;;28.50;64.60;;;;;;5015796;28;20412;-94
2022/06/29 11:37:37;;;;;;;;;;;28.10;65.40;;;;;;5033894;28;20521;-94
2022/06/29 11:40:03;;;;;;;;;;;27.80;66.10;;;;;;5033917;28;20050;-94
2022/06/29 11:45:19;;;;;;;;;;;27.50;66.10;;;;;;5033724;28;19966;-96
2022/06/29 11:47:52;;;;;;;;;;;27.60;64.70;;;;;;5033750;28;19934;-95
2022/06/29 11:50:17;;;;;;;;;;;27.70;63.70;;;;;;5033913;28;19945;-94
2022/06/29 11:52:47;;;;;;;;;;;27.80;63.00;;;;;;5033552;28;19990;-95
2022/06/29 11:55:13;;;;;;;;;;;27.80;62.70;;;;;;5033388;28;19993;-94
2022/06/29 11:57:38;;;;;;;;;;;28.10;62.80;;;;;;5033294;28;19941;-96
2022/06/29 12:00:08;;;;;;;;;;;28.20;62.40;;;;;;5033575;28;19947;-96
2022/06/29 12:02:34;;;;;;;;;;;28.40;61.10;;;;;;5033514;28;19995;-95
2022/06/29 12:05:03;;;;;;;;;;;28.70;60.50;;;;;;5015672;28;20044;-94
2022/06/29 12:07:29;;;;;;;;;;;28.90;60.20;;;;;;5033666;28;19936;-96
2022/06/29 12:09:55;;;;;;;;;;;29.20;60.20;;;;;;5015694;28;19950;-95
2022/06/29 12:12:20;;;;;;;;;;;29.30;60.00;;;;;;5033267;28;19941;-95
2022/06/29 12:14:46;;;;;;;;;;;29.50;59.70;;;;;;5033272;28;19937;-95
2022/06/29 12:17:15;;;;;;;;;;;29.90;59.50;;;;;;5033270;28;20402;-95
2022/06/29 12:19:42;;;;;;;;;;;30.30;58.30;;;;;;5031232;28;19939;-95
2022/06/29 12:22:07;;;;;;;;;;;30.70;57.90;;;;;;5032937;28;20389;-96
2022/06/29 12:24:33;;;;;;;;;;;31.10;57.20;;;;;;5033225;28;19943;-95
2022/06/29 12:26:59;;;;;;;;;;;31.20;55.90;;;;;;5035207;28;20050;-95
2022/06/29 12:29:24;;;;;;;;;;;31.20;55.90;;;;;;5036942;28;20021;-95
2022/06/29 12:31:50;;;;;;;;;;;31.30;55.40;;;;;;5019030;28;19949;-94
2022/06/29 12:34:15;;;;;;;;;;;31.30;55.20;;;;;;5036333;28;20396;-95
2022/06/29 12:36:41;;;;;;;;;;;31.40;54.70;;;;;;5036351;28;20289;-95
2022/06/29 12:39:07;;;;;;;;;;;30.50;57.40;;;;;;5036028;28;19935;-95
2022/06/29 12:41:33;;;;;;;;;;;30.20;58.50;;;;;;5035993;28;19951;-95
2022/06/29 12:43:59;;;;;;;;;;;30.00;59.20;;;;;;5036416;28;19947;-95
2022/06/29 12:46:27;;;;;;;;;;;30.20;58.70;;;;;;5036356;28;20033;-95
2022/06/29 12:48:54;;;;;;;;;;;30.20;58.10;;;;;;5035718;28;20359;-95
2022/06/29 12:51:19;;;;;;;;;;;30.20;58.30;;;;;;5036315;28;19992;-95
2022/06/29 12:53:45;;;;;;;;;;;30.10;57.70;;;;;;5036417;28;19945;-95
2022/06/29 12:56:11;;;;;;;;;;;30.00;58.00;;;;;;5036138;28;19961;-95
2022/06/29 12:58:36;;;;;;;;;;;30.00;57.80;;;;;;5035383;28;19988;-95
2022/06/29 13:01:02;;;;;;;;;;;29.90;57.70;;;;;;5036088;28;20043;-95
2022/06/29 13:03:27;;;;;;;;;;;29.80;58.70;;;;;;5036103;28;19946;-95
2022/06/29 13:05:53;;;;;;;;;;;29.70;59.20;;;;;;5018267;28;19951;-94
2022/06/29 13:08:18;;;;;;;;;;;29.60;60.00;;;;;;5036656;28;19942;-95
2022/06/29 13:10:44;;;;;;;;;;;29.40;60.80;;;;;;5036027;28;19939;-96
2022/06/29 13:13:10;;;;;;;;;;;29.40;61.20;;;;;;5035996;28;19938;-95
2022/06/29 13:15:35;;;;;;;;;;;29.30;61.40;;;;;;5036069;28;20061;-96
2022/06/29 13:18:02;;;;;;;;;;;29.40;61.80;;;;;;5036324;28;20023;-96
2022/06/29 13:20:28;;;;;;;;;;;29.50;61.60;;;;;;5035902;28;19939;-95
2022/06/29 13:22:54;;;;;;;;;;;29.50;61.90;;;;;;5018253;28;20425;-95
2022/06/29 13:25:20;;;;;;;;;;;29.50;61.80;;;;;;5035795;28;19959;-95
2022/06/29 13:27:45;;;;;;;;;;;29.30;62.80;;;;;;5035996;28;20028;-95
2022/06/29 13:30:12;;;;;;;;;;;29.20;63.20;;;;;;5035779;28;19944;-96
2022/06/29 13:32:37;;;;;;;;;;;29.20;63.90;;;;;;5018034;28;20144;-94
2022/06/29 13:35:03;;;;;;;;;;;29.10;64.10;;;;;;5035661;28;20500;-95
2022/06/29 13:37:28;;;;;;;;;;;29.00;64.20;;;;;;5035276;28;19951;-95
2022/06/29 13:39:54;;;;;;;;;;;29.00;64.30;;;;;;5035488;28;20407;-96
2022/06/29 13:42:20;;;;;;;;;;;29.00;65.10;;;;;;5035334;28;20356;-95
2022/06/29 13:44:48;;;;;;;;;;;29.00;64.20;;;;;;5035558;28;19942;-96
2022/06/29 13:47:14;;;;;;;;;;;29.10;63.80;;;;;;5035540;28;19944;-96
2022/06/29 13:49:40;;;;;;;;;;;29.20;63.50;;;;;;5035434;28;19999;-96
2022/06/29 13:52:06;;;;;;;;;;;29.30;63.30;;;;;;5035690;28;19939;-96
2022/06/29 13:54:31;;;;;;;;;;;29.50;62.80;;;;;;5035262;28;19947;-94
2022/06/29 13:56:57;;;;;;;;;;;29.80;62.10;;;;;;5035107;28;19965;-95
2022/06/29 13:59:22;;;;;;;;;;;30.20;61.30;;;;;;5034927;28;20008;-96
2022/06/29 14:01:48;;;;;;;;;;;30.30;60.90;;;;;;5035032;28;20004;-96
2022/06/29 14:04:14;;;;;;;;;;;30.40;60.80;;;;;;5035422;28;19949;-94
2022/06/29 14:06:40;;;;;;;;;;;30.50;60.50;;;;;;5034757;28;19986;-95
2022/06/29 14:09:06;;;;;;;;;;;30.70;60.40;;;;;;5034930;28;19939;-95
2022/06/29 14:11:33;;;;;;;;;;;30.90;59.70;;;;;;5035010;28;20463;-95
2022/06/29 14:13:58;;;;;;;;;;;31.50;57.90;;;;;;5035028;28;19945;-96
2022/06/29 14:16:24;;;;;;;;;;;31.50;58.10;;;;;;5034676;28;19963;-95
2022/06/29 14:18:49;;;;;;;;;;;31.10;59.00;;;;;;5035077;28;19949;-95
2022/06/29 14:21:15;;;;;;;;;;;30.70;60.30;;;;;;5035037;28;19939;-95
2022/06/29 14:23:41;;;;;;;;;;;30.60;60.70;;;;;;5034958;28;19952;-95
2022/06/29 14:26:06;;;;;;;;;;;30.70;61.10;;;;;;5034519;28;20314;-95
2022/06/29 14:28:32;;;;;;;;;;;31.60;58.90;;;;;;5034680;28;19943;-95
2022/06/29 14:30:58;;;;;;;;;;;32.10;57.40;;;;;;5034429;28;20409;-95
2022/06/29 14:33:23;;;;;;;;;;;33.10;54.90;;;;;;5034137;28;19970;-96